Latest Weather Observations for Kilmore Gap

IDV60801

Issued at 11:35 pm EST Friday 19 September 2014 (issued every 30 minutes, with the page automatically refreshed every 10 minutes)

About weather observations | Map of weather stations | Latest weather observations for VIC | Other Formats
Station Details ID: 088162 Name: KILMORE GAP Lat: -37.38 Lon: 144.97 Height: 527.8 m
Data from the previous 72 hours. | See also: Recent months at Kilmore Gap
Date/Time
EST
Temp
°C
App
Temp
°C
Dew
Point
Rel
Hum
%
Delta-T
°C
Wind Press
QNH
hPa
Press
MSL
hPa
Rain
since 9 am
mm
Dir
 
Spd
km/h
Gust
km/h
Spd
kts
Gust
kts
19/11:30pm 7.0 3.0 6.7 98 0.1 S 17 24 9 13 1024.6 - 0.0
19/11:04pm 7.0 3.0 6.6 97 0.2 S 17 22 9 12 1024.8 - 0.0
19/11:00pm 7.0 3.0 6.6 97 0.2 S 17 22 9 12 1024.8 - 0.0
19/10:52pm 7.1 3.1 6.7 97 0.2 S 17 24 9 13 1024.9 - 0.0
19/10:46pm 7.1 2.7 6.7 97 0.2 S 19 28 10 15 1025.0 - 0.0
19/10:30pm 7.1 2.5 6.5 96 0.3 S 20 28 11 15 1024.9 - 0.0
19/10:00pm 7.2 2.7 6.8 97 0.2 S 20 26 11 14 1025.0 - 0.0
19/09:30pm 7.3 2.9 7.2 99 0.0 S 20 26 11 14 1025.1 - 0.0
19/09:00pm 7.3 2.9 7.2 99 0.0 S 20 26 11 14 1024.8 1025.3 0.0
19/08:30pm 7.2 2.9 6.9 98 0.1 S 19 26 10 14 1024.8 - 0.0
19/08:17pm 7.2 2.7 6.8 97 0.2 S 20 28 11 15 1024.7 - 0.0
19/08:00pm 7.1 2.5 6.5 96 0.3 S 20 26 11 14 1024.6 - 0.0
19/07:30pm 7.2 2.6 6.6 96 0.3 S 20 30 11 16 1024.3 - 0.0
19/07:00pm 7.1 2.5 6.5 96 0.3 S 20 26 11 14 1024.0 - 0.0
19/06:30pm 7.4 3.0 6.5 94 0.4 S 19 24 10 13 1023.9 - 0.0
19/06:00pm 8.1 3.5 6.7 91 0.7 S 20 26 11 14 1023.8 1024.4 0.0
19/05:30pm 9.1 4.7 6.5 84 1.2 S 19 24 10 13 1023.6 - 0.0
19/05:00pm 9.8 5.4 6.7 81 1.5 S 19 28 10 15 1023.4 - 0.0
19/04:30pm 9.9 5.8 6.4 79 1.7 S 17 24 9 13 1023.3 - 0.0
19/04:00pm 10.3 6.1 5.7 73 2.2 S 17 26 9 14 1023.1 - 0.0
19/03:30pm 10.3 5.6 5.9 74 2.1 SSE 20 32 11 17 1023.0 - 0.0
19/03:00pm 10.7 6.1 5.7 71 2.4 S 19 28 10 15 1022.9 1023.4 0.0
19/02:30pm 11.5 6.1 6.2 70 2.6 S 24 33 13 18 1023.1 - 0.0
19/02:00pm 11.9 7.8 6.0 67 2.8 S 17 26 9 14 1023.2 - 0.0
19/01:30pm 11.5 7.5 6.8 73 2.3 S 17 30 9 16 1023.2 - 0.0
19/01:00pm 10.3 5.6 5.1 70 2.4 S 19 28 10 15 1023.6 - 0.0
19/12:30pm 11.1 6.5 5.4 68 2.7 S 19 24 10 13 1023.9 - 0.0
19/12:00pm 11.1 6.9 7.4 78 1.8 S 19 26 10 14 1024.1 1024.7 0.0
19/11:30am 10.5 5.9 5.5 71 2.4 SSW 19 28 10 15 1024.1 - 0.0
19/11:00am 10.0 5.4 5.8 75 2.0 S 19 28 10 15 1024.2 - 0.0
19/10:30am 9.5 4.8 5.9 78 1.7 SSW 20 32 11 17 1024.4 - 0.0
19/10:16am 10.0 5.5 6.9 81 1.5 SSW 20 32 11 17 1024.6 - 0.0
19/10:00am 8.3 2.8 5.8 84 1.2 SSW 24 33 13 18 1024.6 - 0.0
19/09:36am 9.0 4.5 7.0 87 1.0 S 20 35 11 19 1024.3 - 0.0
19/09:30am 8.3 3.6 5.9 85 1.1 SSW 20 35 11 19 1024.3 - 0.0
19/09:00am 7.7 3.7 6.5 92 0.6 SSW 17 32 9 17 1024.4 1025.0 0.6
19/08:30am 6.5 1.4 5.8 95 0.3 SSW 22 35 12 19 1024.3 - 0.6
19/08:00am 5.9 1.0 5.0 94 0.4 SSW 20 30 11 16 1024.2 - 0.6
19/07:55am 5.9 1.0 5.2 95 0.3 SSW 20 32 11 17 1024.1 - 0.6
19/07:30am 5.4 0.6 4.8 96 0.3 SSW 19 24 10 13 1023.9 - 0.6
19/07:00am 5.1 0.3 4.7 97 0.2 SSW 19 24 10 13 1023.8 - 0.6
19/06:44am 4.8 0.0 4.4 97 0.2 SSW 19 28 10 15 1023.7 - 0.6
19/06:30am 4.9 -0.5 4.3 96 0.3 SSW 22 32 12 17 1023.5 - 0.6
19/06:00am 4.9 -0.9 4.2 95 0.3 SSW 24 33 13 18 1023.2 1023.7 0.6
19/05:30am 4.9 -0.6 3.9 93 0.4 SSW 22 32 12 17 1023.0 - 0.6
19/05:00am 5.0 -0.9 3.8 92 0.5 SSW 24 37 13 20 1022.7 - 0.6
19/04:30am 5.0 -1.0 3.3 89 0.7 SSW 24 35 13 19 1022.3 - 0.6
19/04:00am 4.9 -1.5 3.1 88 0.8 SSW 26 35 14 19 1022.3 - 0.6
19/03:30am 5.1 -1.4 2.8 85 1.0 SSW 26 35 14 19 1022.3 - 0.6
19/03:00am 4.7 -1.9 2.1 83 1.1 SSW 26 35 14 19 1022.6 1023.1 0.6
19/02:30am 4.8 -1.4 2.2 83 1.1 SSW 24 32 13 17 1022.8 - 0.6
19/02:00am 4.6 -1.6 2.3 85 1.0 SSW 24 32 13 17 1023.1 - 0.6
19/01:30am 4.4 -1.7 2.6 88 0.8 SSW 24 32 13 17 1023.2 - 0.6
19/01:00am 3.9 -1.5 2.7 92 0.5 SW 20 28 11 15 1023.5 - 0.6
19/12:30am 3.9 -1.4 3.0 94 0.4 SW 20 24 11 13 1023.7 - 0.6
19/12:00am 4.5 -1.1 3.5 93 0.4 SW 22 28 12 15 1023.7 1024.3 0.6
 
Date/Time
EST
Temp
°C
App
Temp
°C
Dew
Point
Rel
Hum
%
Delta-T
°C
Wind Press
QNH
hPa
Press
MSL
hPa
Rain
since 9 am
mm
Dir
 
Spd
km/h
Gust
km/h
Spd
kts
Gust
kts
18/11:30pm 4.8 -0.4 3.8 93 0.4 SW 20 28 11 15 1024.0 - 0.6
18/11:00pm 5.2 -0.4 3.7 90 0.6 SSW 22 28 12 15 1024.1 - 0.6
18/10:30pm 5.6 0.6 3.8 88 0.8 SSW 19 24 10 13 1024.1 - 0.6
18/10:00pm 5.6 1.1 4.4 92 0.5 S 17 24 9 13 1024.1 - 0.6
18/09:30pm 5.7 0.8 4.3 91 0.6 S 19 24 10 13 1023.9 - 0.6
18/09:00pm 5.5 0.4 4.3 92 0.5 S 20 28 11 15 1023.9 1024.5 0.6
18/08:30pm 5.9 0.9 4.7 92 0.5 S 20 26 11 14 1023.9 - 0.6
18/08:00pm 6.0 1.7 5.1 94 0.4 S 17 22 9 12 1023.8 - 0.6
18/07:30pm 6.1 1.9 5.5 96 0.3 S 17 20 9 11 1023.7 - 0.6
18/07:00pm 6.3 2.2 6.2 99 0.0 S 17 20 9 11 1023.4 - 0.6
18/06:30pm 6.3 2.6 6.3 100 0.0 S 15 20 8 11 1023.3 - 0.6
18/06:00pm 6.0 2.2 6.0 100 0.0 S 15 20 8 11 1023.1 1023.6 0.6
18/05:48pm 6.0 2.2 5.9 99 0.0 S 15 20 8 11 1023.0 - 0.6
18/05:30pm 6.4 1.8 6.3 99 0.0 S 20 30 11 16 1022.8 - 0.6
18/05:12pm 7.3 3.6 6.2 93 0.5 S 15 20 8 11 1022.6 - 0.4
18/05:00pm 7.5 3.1 6.6 94 0.4 S 19 26 10 14 1022.4 - 0.4
18/04:30pm 7.5 2.7 5.8 89 0.8 S 20 33 11 18 1022.1 - 0.4
18/04:00pm 8.7 3.9 5.8 82 1.4 S 20 32 11 17 1021.9 - 0.4
18/03:30pm 7.7 3.3 6.5 92 0.6 S 19 28 10 15 1021.9 - 0.4
18/03:11pm 7.6 2.9 6.2 91 0.7 S 20 30 11 16 1021.9 - 0.4
18/03:00pm 7.4 1.9 5.7 89 0.8 S 24 35 13 19 1021.8 1022.3 0.4
18/02:47pm 8.5 4.4 6.3 86 1.0 S 17 33 9 18 1021.8 - 0.4
18/02:30pm 8.9 4.6 7.0 88 0.9 S 19 26 10 14 1021.8 - 0.4
18/02:00pm 9.1 3.9 5.5 78 1.7 S 22 33 12 18 1021.7 - 0.4
18/01:30pm 8.2 3.5 5.3 82 1.3 S 19 28 10 15 1021.8 - 0.4
18/01:00pm 8.9 4.8 7.8 93 0.5 S 19 24 10 13 1021.8 - 0.4
18/12:30pm 7.5 3.4 6.1 91 0.7 SSW 17 22 9 12 1022.1 - 0.4
18/12:00pm 7.4 3.2 5.7 89 0.8 S 17 22 9 12 1022.1 1022.7 0.0
18/11:30am 8.2 4.0 5.5 83 1.3 S 17 26 9 14 1022.2 - 0.0
18/11:00am 7.3 1.9 4.4 82 1.3 S 22 39 12 21 1022.2 - 0.0
18/10:30am 7.2 1.4 4.3 82 1.3 SSW 24 39 13 21 1022.2 - 0.0
18/10:00am 7.0 1.6 4.5 84 1.1 S 22 30 12 16 1022.0 - 0.0
18/09:30am 6.6 0.8 4.3 85 1.0 SSW 24 37 13 20 1021.9 - 0.0
18/09:27am 6.6 0.7 4.1 84 1.1 SSW 24 37 13 20 1021.9 - 0.0
18/09:10am 6.7 1.3 4.4 85 1.0 SSW 22 39 12 21 1021.8 - 0.0
18/09:00am 7.0 0.9 5.0 87 0.9 SSW 26 39 14 21 1021.6 1022.1 1.0
18/08:30am 6.0 0.2 4.6 91 0.6 SSW 24 32 13 17 1021.4 - 1.0
18/08:00am 5.1 -0.7 4.4 95 0.3 SW 24 32 13 17 1021.1 - 1.0
18/07:30am 4.4 -1.1 4.0 97 0.2 SW 22 30 12 16 1020.8 - 1.0
18/07:00am 3.8 -2.5 3.5 98 0.1 SW 26 33 14 18 1020.3 - 1.0
18/06:30am 3.7 -2.6 3.6 99 0.0 SW 26 32 14 17 1020.0 - 1.0
18/06:00am 3.7 -1.9 3.6 99 0.0 SW 22 32 12 17 1019.8 1020.3 1.0
18/05:30am 3.8 -2.1 3.7 99 0.0 SW 24 35 13 19 1019.6 - 1.0
18/05:00am 4.0 -1.9 3.9 99 0.0 SW 24 33 13 18 1019.2 - 1.0
18/04:30am 4.3 -2.4 3.9 97 0.2 SW 28 37 15 20 1019.1 - 1.0
18/04:00am 3.8 -2.5 3.5 98 0.1 SW 26 35 14 19 1018.8 - 1.0
18/03:30am 3.7 -2.7 3.4 98 0.1 SW 26 35 14 19 1018.6 - 1.0
18/03:00am 3.9 -2.5 3.3 96 0.3 SW 26 33 14 18 1018.6 1019.0 1.0
18/02:30am 4.0 -2.4 3.3 95 0.3 SW 26 37 14 20 1018.6 - 1.0
18/02:00am 4.0 -2.4 3.3 95 0.3 SW 26 37 14 20 1018.6 - 1.0
18/01:30am 4.0 -1.6 3.6 97 0.2 SW 22 32 12 17 1018.9 - 1.0
18/01:00am 4.2 -2.1 3.5 95 0.3 SW 26 37 14 20 1019.0 - 1.0
18/12:30am 3.8 -2.6 3.2 96 0.3 SW 26 33 14 18 1019.1 - 1.0
18/12:00am 4.1 -1.9 3.2 94 0.4 SW 24 33 13 18 1018.9 1019.4 1.0
 
Date/Time
EST
Temp
°C
App
Temp
°C
Dew
Point
Rel
Hum
%
Delta-T
°C
Wind Press
QNH
hPa
Press
MSL
hPa
Rain
since 9 am
mm
Dir
 
Spd
km/h
Gust
km/h
Spd
kts
Gust
kts
17/11:30pm 3.9 -2.1 3.2 95 0.3 SW 24 32 13 17 1019.0 - 1.0
17/11:00pm 3.9 -1.7 3.2 95 0.3 SW 22 30 12 16 1018.9 - 1.0
17/10:30pm 4.1 -1.2 3.2 94 0.4 SW 20 28 11 15 1018.9 - 1.0
17/10:00pm 4.0 -1.7 3.1 94 0.4 SW 22 30 12 16 1018.9 - 1.0
17/09:30pm 4.1 -1.1 3.5 96 0.3 SW 20 28 11 15 1018.8 - 1.0
17/09:00pm 4.5 -0.7 3.8 95 0.3 SW 20 28 11 15 1018.6 1019.0 1.0
17/08:30pm 4.5 -1.0 3.8 95 0.3 SW 22 32 12 17 1018.2 - 1.0
17/08:00pm 4.8 -0.4 3.6 92 0.5 SW 20 30 11 16 1018.0 - 1.0
17/07:30pm 5.5 -0.2 2.8 83 1.1 SW 22 32 12 17 1017.8 - 1.0
17/07:00pm 5.2 -1.3 2.6 83 1.1 SW 26 37 14 20 1017.4 - 1.0
17/06:30pm 5.7 -0.2 3.7 87 0.9 SW 24 35 13 19 1017.0 - 1.0
17/06:00pm 6.5 0.7 4.2 85 1.0 SW 24 32 13 17 1016.8 1017.2 1.0
17/05:30pm 6.6 0.8 4.6 87 0.9 SW 24 35 13 19 1016.4 - 1.0
17/05:00pm 5.9 0.2 5.0 94 0.4 WSW 24 32 13 17 1016.1 - 1.0
17/04:51pm 5.8 0.2 5.4 97 0.2 WSW 24 35 13 19 1016.1 - 1.0
17/04:31pm 6.3 0.8 5.9 97 0.2 WSW 24 33 13 18 1015.9 - 0.6
17/04:30pm 6.3 0.8 5.9 97 0.2 WSW 24 33 13 18 1015.9 - 0.6
17/04:00pm 7.7 2.6 5.8 88 0.9 SW 22 32 12 17 1015.4 - 0.0
17/03:30pm 8.9 3.4 3.9 71 2.2 SW 22 33 12 18 1014.9 - 0.0
17/03:07pm 9.7 2.8 2.8 62 3.0 SW 28 48 15 26 1014.7 - 0.0
17/03:00pm 9.9 3.4 2.5 60 3.3 SW 26 39 14 21 1014.4 1014.9 0.0
17/02:30pm 10.2 3.2 2.1 57 3.5 WSW 28 44 15 24 1014.1 - 0.0
17/02:00pm 9.6 3.7 6.0 78 1.7 WSW 26 43 14 23 1014.2 - 0.0
17/01:36pm 7.7 0.9 7.0 95 0.3 WSW 32 50 17 27 1014.3 - 0.0
17/01:30pm 7.6 -0.6 6.7 94 0.4 WSW 39 54 21 29 1014.2 - 0.0
17/01:06pm 9.8 3.4 5.0 72 2.2 WSW 28 46 15 25 1013.9 - 0.0
17/01:00pm 10.0 4.0 5.4 73 2.2 WSW 26 39 14 21 1013.9 - 0.0
17/12:49pm 8.8 2.4 5.4 79 1.6 WSW 28 50 15 27 1013.9 - 0.0
17/12:30pm 9.8 5.4 6.5 80 1.6 WSW 19 28 10 15 1014.0 - 0.0
17/12:00pm 10.8 5.2 5.3 69 2.6 SW 24 41 13 22 1013.8 1014.2 0.0
17/11:30am 11.0 4.4 4.2 63 3.1 WSW 28 46 15 25 1013.7 - 0.0
17/11:00am 10.6 4.2 5.4 70 2.5 WSW 28 37 15 20 1014.1 - 0.0
17/10:52am 10.1 3.6 4.7 69 2.5 WSW 28 48 15 26 1014.1 - 0.0
17/10:30am 9.6 4.6 6.3 80 1.6 WSW 22 35 12 19 1014.1 - 0.0
17/10:00am 8.7 2.2 4.9 77 1.7 WSW 28 39 15 21 1014.0 - 0.0
17/09:30am 9.2 4.1 6.1 81 1.5 WSW 22 33 12 18 1013.9 - 0.0
17/09:00am 8.7 3.6 6.2 84 1.2 WSW 22 30 12 16 1013.9 1014.4 2.0
17/08:30am 8.0 3.7 5.1 82 1.3 WSW 17 26 9 14 1013.8 - 2.0
17/08:00am 6.8 2.7 4.5 85 1.0 W 15 20 8 11 1013.7 - 2.0
17/07:30am 6.3 1.2 4.1 86 1.0 W 20 28 11 15 1013.4 - 2.0
17/07:00am 6.1 0.3 4.3 88 0.8 W 24 32 13 17 1013.2 - 2.0
17/06:30am 6.2 1.4 5.6 96 0.3 W 20 26 11 14 1013.1 - 2.0
17/06:00am 6.2 3.2 6.1 99 0.0 WNW 11 15 6 8 1013.2 1013.6 2.0
17/05:30am 6.2 2.4 5.9 98 0.1 WNW 15 20 8 11 1013.0 - 2.0
17/05:00am 6.1 2.7 5.7 97 0.2 WNW 13 19 7 10 1012.8 - 2.0
17/04:30am 6.0 2.5 5.3 95 0.3 WNW 13 20 7 11 1012.8 - 2.0
17/04:00am 6.0 2.9 5.4 96 0.3 NW 11 17 6 9 1012.7 - 2.0
17/03:30am 6.2 4.4 5.5 95 0.3 NNW 4 9 2 5 1012.4 - 1.8
17/03:00am 5.8 3.4 5.1 95 0.3 NW 7 9 4 5 1012.8 1013.2 1.8
17/02:30am 6.1 3.0 5.5 96 0.3 W 11 13 6 7 1012.8 - 1.8
17/02:00am 6.5 2.7 5.8 95 0.3 WSW 15 19 8 10 1012.8 - 1.8
17/01:30am 6.9 3.2 6.5 97 0.2 WSW 15 19 8 10 1013.1 - 1.8
17/01:00am 6.8 3.5 6.5 98 0.1 WSW 13 15 7 8 1013.1 - 1.8
17/12:30am 6.3 2.5 6.0 98 0.1 WSW 15 17 8 9 1013.2 - 1.8
17/12:00am 6.4 3.0 5.8 96 0.3 SW 13 17 7 9 1013.2 1013.6 1.8

Other Formats:

Comma delimited format used in spreadsheet applications
http://www.bom.gov.au/fwo/IDV60801/IDV60801.94860.axf

JavaScript Object Notation format (JSON) in row-major order
http://www.bom.gov.au/fwo/IDV60801/IDV60801.94860.json